createdAt,value
2022-12-17T00:02:35.802Z,43.00
2022-12-17T00:05:24.798Z,49.80
2022-12-17T00:08:20.606Z,43.60
2022-12-17T00:11:09.288Z,47.03
2022-12-17T00:13:58.229Z,43.97
2022-12-17T00:16:46.877Z,49.63
2022-12-17T00:19:35.784Z,49.58
2022-12-17T00:22:24.585Z,48.20
2022-12-17T00:25:13.234Z,45.67
2022-12-17T00:28:01.700Z,42.53
2022-12-17T00:30:50.346Z,44.67
2022-12-17T00:33:38.944Z,42.40
2022-12-17T00:36:27.420Z,42.22
2022-12-17T00:39:16.416Z,43.95
2022-12-17T00:42:05.051Z,43.65
2022-12-17T00:44:53.413Z,42.97
2022-12-17T00:47:41.992Z,43.80
2022-12-17T00:50:31.949Z,39.28
2022-12-17T00:53:20.981Z,41.15
2022-12-17T00:56:10.167Z,42.30
2022-12-17T00:58:59.036Z,43.80
2022-12-17T01:01:48.688Z,40.78
2022-12-17T01:04:37.449Z,41.42
2022-12-17T01:07:25.928Z,47.58
2022-12-17T01:10:14.399Z,39.05
2022-12-17T01:13:02.982Z,45.30
2022-12-17T01:15:51.275Z,47.60
2022-12-17T01:18:40.938Z,47.40
2022-12-17T01:21:29.521Z,41.92
2022-12-17T01:24:18.312Z,40.03
2022-12-17T01:27:10.838Z,45.63
2022-12-17T01:29:59.265Z,41.75
2022-12-17T01:32:47.847Z,38.92
2022-12-17T01:35:36.892Z,39.58
2022-12-17T01:38:35.181Z,34.03
2022-12-17T01:41:25.347Z,42.50
2022-12-17T01:44:13.856Z,41.95
2022-12-17T01:47:11.765Z,37.88
2022-12-17T01:50:05.496Z,41.28
2022-12-17T01:52:54.334Z,33.65
2022-12-17T01:55:43.468Z,37.45
2022-12-17T01:58:33.022Z,36.67
2022-12-17T02:01:21.926Z,42.33
2022-12-17T02:04:11.283Z,39.55
2022-12-17T02:07:08.936Z,38.60
2022-12-17T02:10:16.017Z,38.35
2022-12-17T02:13:17.555Z,38.47
2022-12-17T02:16:14.830Z,43.65
2022-12-17T02:19:13.756Z,37.05
2022-12-17T02:22:05.894Z,37.35
2022-12-17T02:25:01.353Z,40.78
2022-12-17T02:27:51.679Z,35.20
2022-12-17T02:30:41.210Z,36.08
2022-12-17T02:33:31.045Z,35.03
2022-12-17T02:36:25.741Z,36.50
2022-12-17T02:39:14.186Z,36.20
2022-12-17T02:42:11.430Z,36.90
2022-12-17T02:48:05.127Z,940.55
2022-12-17T02:50:53.717Z,733.17
2022-12-17T02:53:42.589Z,114.85
2022-12-17T02:56:31.241Z,56.75
2022-12-17T02:59:19.621Z,56.53
2022-12-17T03:02:08.866Z,63.28
2022-12-17T03:05:10.527Z,53.03
2022-12-17T03:08:06.424Z,67.80
2022-12-17T03:10:55.243Z,845.03
2022-12-17T03:13:48.990Z,663.03
2022-12-17T03:16:39.078Z,590.30
2022-12-17T03:19:27.833Z,871.97
2022-12-17T03:22:16.395Z,927.25
2022-12-17T03:25:05.208Z,166.60
2022-12-17T03:28:01.417Z,161.20
2022-12-17T03:30:50.107Z,33.67
2022-12-17T03:33:39.051Z,35.47
2022-12-17T03:36:28.018Z,36.22
2022-12-17T03:39:33.382Z,34.30
2022-12-17T03:42:22.415Z,36.85
2022-12-17T03:45:11.101Z,31.58
2022-12-17T03:47:59.587Z,37.20
2022-12-17T03:50:48.190Z,45.40
2022-12-17T03:53:37.018Z,49.53
2022-12-17T03:56:26.253Z,82.35
2022-12-17T03:59:14.959Z,219.57
2022-12-17T04:02:03.488Z,213.85
2022-12-17T04:04:52.363Z,66.80
2022-12-17T04:07:40.687Z,626.72
2022-12-17T04:10:29.536Z,51.97
2022-12-17T04:13:18.006Z,93.80
2022-12-17T04:16:06.522Z,56.90
2022-12-17T04:18:55.410Z,42.20
2022-12-17T04:21:44.229Z,54.67
2022-12-17T04:24:32.984Z,44.33
2022-12-17T04:27:21.454Z,42.47
2022-12-17T04:30:09.787Z,36.90
2022-12-17T04:32:58.201Z,32.40
2022-12-17T04:35:46.555Z,34.08
2022-12-17T04:38:35.441Z,42.08
2022-12-17T04:41:24.039Z,40.83
2022-12-17T04:44:32.363Z,45.78
2022-12-17T04:47:21.043Z,57.95
2022-12-17T04:50:09.560Z,56.50
2022-12-17T04:53:18.026Z,51.67
2022-12-17T04:56:07.615Z,40.80
2022-12-17T04:58:58.799Z,40.78
2022-12-17T05:01:47.619Z,40.80
2022-12-17T05:04:36.033Z,35.47
2022-12-17T05:07:24.270Z,30.73
2022-12-17T05:10:14.132Z,35.25
2022-12-17T05:13:02.587Z,50.95
2022-12-17T05:15:53.463Z,48.97
2022-12-17T05:18:42.913Z,57.35
2022-12-17T05:21:33.483Z,54.88
2022-12-17T05:24:22.462Z,59.97
2022-12-17T05:27:11.045Z,46.95
2022-12-17T05:29:59.733Z,143.27
2022-12-17T05:33:05.272Z,54.33
2022-12-17T05:35:53.560Z,60.15
2022-12-17T05:38:42.175Z,50.47
2022-12-17T05:41:30.418Z,71.20
2022-12-17T05:44:18.836Z,47.03
2022-12-17T05:47:07.558Z,54.10
2022-12-17T05:49:56.371Z,36.80
2022-12-17T05:52:44.800Z,34.03
2022-12-17T05:55:33.384Z,28.55
2022-12-17T05:58:32.802Z,31.10
2022-12-17T06:01:24.056Z,42.08
2022-12-17T06:04:12.952Z,33.75
2022-12-17T06:07:01.398Z,33.67
2022-12-17T06:09:49.796Z,35.85
2022-12-17T06:12:38.464Z,32.55
2022-12-17T06:15:28.493Z,194.95
2022-12-17T06:18:18.116Z,43.55
2022-12-17T06:21:06.950Z,38.20
2022-12-17T06:23:55.684Z,42.15
2022-12-17T06:26:44.340Z,36.58
2022-12-17T06:29:33.601Z,46.55
2022-12-17T06:32:22.374Z,37.92
2022-12-17T06:35:10.817Z,43.58
2022-12-17T06:37:59.502Z,47.78
2022-12-17T06:40:48.165Z,42.50
2022-12-17T06:43:36.771Z,32.22
2022-12-17T06:46:25.314Z,39.45
2022-12-17T06:49:24.699Z,37.10
2022-12-17T06:52:13.918Z,38.85
2022-12-17T06:55:02.319Z,54.88
2022-12-17T06:57:51.049Z,39.03
2022-12-17T07:00:39.362Z,43.15
2022-12-17T07:03:31.281Z,22.25
2022-12-17T07:06:22.542Z,19.45
2022-12-17T07:09:11.321Z,22.08
2022-12-17T07:12:00.870Z,17.65
2022-12-17T07:14:50.396Z,17.60
2022-12-17T07:17:39.132Z,16.35
2022-12-17T07:20:28.228Z,16.27
2022-12-17T07:23:17.436Z,16.80
2022-12-17T07:26:06.021Z,15.35
2022-12-17T07:28:55.083Z,15.63
2022-12-17T07:31:43.539Z,21.33
2022-12-17T07:34:31.925Z,21.70
2022-12-17T07:37:20.934Z,37.78
2022-12-17T07:40:09.602Z,24.88
2022-12-17T07:42:59.633Z,23.23
2022-12-17T07:45:48.546Z,28.67
2022-12-17T07:48:37.016Z,39.35
2022-12-17T07:51:25.357Z,31.13
2022-12-17T07:54:38.831Z,28.60
2022-12-17T07:57:27.070Z,41.53
2022-12-17T08:00:15.496Z,24.63
2022-12-17T08:03:04.088Z,31.73
2022-12-17T08:05:52.658Z,16.38
2022-12-17T08:08:41.060Z,16.42
2022-12-17T08:11:29.458Z,16.85
2022-12-17T08:14:18.162Z,16.73
2022-12-17T08:17:06.684Z,17.02
2022-12-17T08:19:55.195Z,15.30
2022-12-17T08:22:43.895Z,16.98
2022-12-17T08:25:32.456Z,18.13
2022-12-17T08:28:48.893Z,16.48
2022-12-17T08:31:30.760Z,22.98
2022-12-17T08:34:19.189Z,26.95
2022-12-17T08:37:08.263Z,24.98
2022-12-17T08:39:56.737Z,20.33
2022-12-17T08:42:45.286Z,21.23
2022-12-17T08:45:33.706Z,16.42
2022-12-17T08:48:28.884Z,19.30
2022-12-17T08:51:17.370Z,15.68
2022-12-17T08:54:06.065Z,18.00
2022-12-17T08:56:54.824Z,22.13
2022-12-17T08:59:45.774Z,23.35
2022-12-17T09:02:34.365Z,19.38
2022-12-17T09:05:23.146Z,17.92
2022-12-17T09:08:20.048Z,21.98
2022-12-17T09:11:08.674Z,22.33
2022-12-17T09:13:57.793Z,20.80
2022-12-17T09:16:46.335Z,23.92
2022-12-17T09:19:34.847Z,28.33
2022-12-17T09:22:23.284Z,21.83
2022-12-17T09:25:11.504Z,24.40
2022-12-17T09:28:00.233Z,26.38
2022-12-17T09:30:48.896Z,22.10
2022-12-17T09:33:38.525Z,21.42
2022-12-17T09:36:28.265Z,20.73
2022-12-17T09:39:16.551Z,30.83
2022-12-17T09:42:34.189Z,28.08
2022-12-17T09:45:32.889Z,23.13
2022-12-17T09:48:47.401Z,19.75
2022-12-17T09:51:44.411Z,19.05
2022-12-17T09:55:00.834Z,23.35
2022-12-17T09:57:54.583Z,22.50
2022-12-17T10:00:48.799Z,18.70
2022-12-17T10:03:45.053Z,23.73
2022-12-17T10:06:39.594Z,18.92
2022-12-17T10:09:34.919Z,19.20
2022-12-17T10:12:39.080Z,22.20
2022-12-17T10:15:28.922Z,59.55
2022-12-17T10:18:17.675Z,58.55
2022-12-17T10:21:11.912Z,38.15
2022-12-17T10:24:00.322Z,37.75
2022-12-17T10:26:51.649Z,33.05
2022-12-17T10:29:48.475Z,26.15
2022-12-17T10:32:37.448Z,37.05
2022-12-17T10:35:47.719Z,25.45
2022-12-17T10:38:47.051Z,25.23
2022-12-17T10:41:44.474Z,23.20
2022-12-17T10:44:44.431Z,24.08
2022-12-17T10:47:35.487Z,21.15
2022-12-17T10:50:42.906Z,21.63
2022-12-17T10:53:41.295Z,22.67
2022-12-17T10:56:42.925Z,19.92
2022-12-17T11:02:23.728Z,18.40
2022-12-17T11:05:14.250Z,16.58
2022-12-17T11:08:05.142Z,38.20
2022-12-17T11:11:01.650Z,18.17
2022-12-17T11:13:53.856Z,18.80
2022-12-17T11:16:50.069Z,19.48
2022-12-17T11:20:15.589Z,25.55
2022-12-17T11:23:06.749Z,22.88
2022-12-17T11:26:13.938Z,22.52
2022-12-17T11:29:02.628Z,17.80
2022-12-17T11:32:19.328Z,17.13
2022-12-17T11:35:40.028Z,16.23
2022-12-17T11:38:28.211Z,21.45
2022-12-17T11:41:40.229Z,18.73
2022-12-17T11:44:57.453Z,17.23
2022-12-17T11:48:02.648Z,22.38
2022-12-17T11:51:32.596Z,23.58
2022-12-17T11:54:46.132Z,15.25
2022-12-17T11:58:13.124Z,19.20
2022-12-17T12:01:27.288Z,17.85
2022-12-17T12:04:50.239Z,14.35
2022-12-17T12:07:58.827Z,15.63
2022-12-17T12:11:00.480Z,16.77
2022-12-17T12:14:20.403Z,13.45
2022-12-17T12:17:24.105Z,13.88
2022-12-17T12:20:12.195Z,17.67
2022-12-17T12:23:08.923Z,18.63
2022-12-17T12:26:33.042Z,14.88
2022-12-17T12:29:42.276Z,16.35
2022-12-17T12:33:02.252Z,13.35
2022-12-17T12:35:54.100Z,15.52
2022-12-17T12:38:50.687Z,14.80
2022-12-17T12:41:44.747Z,12.45
2022-12-17T12:44:59.851Z,13.02
2022-12-17T12:48:11.956Z,13.38
2022-12-17T12:51:11.513Z,11.65
2022-12-17T12:53:59.751Z,13.65
2022-12-17T12:56:56.382Z,11.73
2022-12-17T12:59:47.712Z,13.70
2022-12-17T13:02:50.350Z,14.57
2022-12-17T13:05:38.220Z,11.93
2022-12-17T13:08:11.205Z,13.88
2022-12-17T13:10:43.482Z,12.02
2022-12-17T13:13:37.516Z,9.63
2022-12-17T13:16:34.188Z,13.18
2022-12-17T13:19:21.213Z,14.77
2022-12-17T13:21:51.861Z,13.88
2022-12-17T13:24:30.248Z,9.80
2022-12-17T13:27:00.592Z,12.60
2022-12-17T13:29:35.963Z,13.07
2022-12-17T13:32:24.228Z,11.43
2022-12-17T13:35:33.411Z,12.98
2022-12-17T13:38:36.543Z,16.42
2022-12-17T13:41:11.036Z,10.73
2022-12-17T13:44:03.557Z,14.85
2022-12-17T13:46:48.685Z,12.55
2022-12-17T13:49:26.992Z,13.50
2022-12-17T13:52:20.145Z,10.85
2022-12-17T13:54:51.110Z,13.57
2022-12-17T13:57:24.581Z,14.60
2022-12-17T14:00:00.213Z,14.07
2022-12-17T14:02:41.557Z,16.13
2022-12-17T14:05:39.978Z,13.02
2022-12-17T14:08:11.012Z,10.65
2022-12-17T14:10:47.057Z,21.83
2022-12-17T14:13:18.954Z,15.02
2022-12-17T14:15:52.421Z,13.55
2022-12-17T14:18:24.224Z,15.25
2022-12-17T14:20:58.674Z,14.18
2022-12-17T14:23:36.160Z,12.80
2022-12-17T14:26:07.455Z,12.85
2022-12-17T14:31:27.087Z,13.20
2022-12-17T14:34:13.864Z,14.32
2022-12-17T14:36:46.288Z,12.80
2022-12-17T14:39:50.356Z,10.95
2022-12-17T14:42:34.796Z,14.07
2022-12-17T14:45:27.142Z,14.63
2022-12-17T14:48:02.411Z,13.27
2022-12-17T14:50:36.326Z,12.68
2022-12-17T14:53:26.901Z,14.18
2022-12-17T14:58:17.959Z,27.48
2022-12-17T15:00:48.233Z,22.25
2022-12-17T15:03:28.210Z,22.80
2022-12-17T15:06:04.886Z,23.85
2022-12-17T15:08:38.893Z,28.77
2022-12-17T15:11:10.000Z,22.75
2022-12-17T15:13:40.282Z,25.03
2022-12-17T15:16:11.234Z,22.98
2022-12-17T15:18:41.519Z,23.02
2022-12-17T15:21:15.125Z,23.33
2022-12-17T15:23:48.062Z,65.53
2022-12-17T15:26:19.699Z,27.33
2022-12-17T15:28:49.847Z,18.45
2022-12-17T15:31:24.626Z,23.83
2022-12-17T15:33:56.312Z,23.45
2022-12-17T15:36:26.615Z,24.90
2022-12-17T15:38:56.892Z,25.17
2022-12-17T15:41:45.531Z,25.30
2022-12-17T15:44:15.791Z,20.88
2022-12-17T15:46:46.039Z,28.80
2022-12-17T15:49:16.784Z,25.92
2022-12-17T15:51:47.258Z,30.80
2022-12-17T15:54:18.519Z,23.92
2022-12-17T15:59:25.360Z,30.48
2022-12-17T16:01:55.726Z,22.85
2022-12-17T16:04:25.904Z,31.40
2022-12-17T16:06:56.473Z,24.60
2022-12-17T16:09:29.426Z,29.20
2022-12-17T16:14:46.225Z,26.02
2022-12-17T16:17:16.357Z,27.15
2022-12-17T16:19:46.742Z,26.15
2022-12-17T16:22:35.250Z,30.83
2022-12-17T16:25:06.785Z,25.50
2022-12-17T16:27:37.215Z,26.75
2022-12-17T16:30:25.594Z,27.98
2022-12-17T16:32:55.992Z,24.67
2022-12-17T16:35:27.023Z,27.98
2022-12-17T16:37:57.912Z,20.17
2022-12-17T16:40:28.476Z,28.15
2022-12-17T16:42:59.010Z,22.52
2022-12-17T16:45:29.564Z,27.20
2022-12-17T16:47:59.765Z,30.15
2022-12-17T16:50:32.879Z,23.48
2022-12-17T16:53:05.092Z,28.08
2022-12-17T16:55:35.577Z,25.25
2022-12-17T16:58:06.110Z,19.97
2022-12-17T17:00:37.454Z,33.10
2022-12-17T17:03:08.524Z,27.42
2022-12-17T17:08:10.250Z,24.35
2022-12-17T17:10:41.072Z,28.20
2022-12-17T17:13:11.799Z,23.83
2022-12-17T17:15:41.914Z,18.53
2022-12-17T17:18:12.263Z,18.50
2022-12-17T17:20:42.940Z,34.28
2022-12-17T17:23:14.377Z,20.77
2022-12-17T17:28:28.978Z,25.77
2022-12-17T17:31:06.052Z,25.23
2022-12-17T17:33:38.783Z,27.90
2022-12-17T17:36:14.956Z,24.70
2022-12-17T17:39:04.757Z,21.52
2022-12-17T17:41:37.543Z,20.38
2022-12-17T17:44:14.614Z,25.15
2022-12-17T17:46:45.254Z,22.67
2022-12-17T17:49:15.749Z,22.87
2022-12-17T17:54:37.191Z,25.40
2022-12-17T17:57:07.662Z,33.22
2022-12-17T17:59:38.114Z,23.60
2022-12-17T18:05:12.601Z,27.33
2022-12-17T18:07:42.874Z,23.73
2022-12-17T18:10:13.590Z,28.30
2022-12-17T18:15:48.122Z,27.23
2022-12-17T18:18:18.386Z,28.05
2022-12-17T18:20:48.600Z,22.98
2022-12-17T18:23:18.845Z,18.65
2022-12-17T18:25:49.089Z,26.63
2022-12-17T18:28:38.484Z,23.77
2022-12-17T18:34:00.598Z,21.40
2022-12-17T18:39:37.567Z,10.90
2022-12-17T18:42:26.051Z,14.80
2022-12-17T18:44:56.251Z,17.30
2022-12-17T18:47:46.499Z,20.00
2022-12-17T18:50:16.669Z,18.05
2022-12-17T18:52:46.668Z,13.93
2022-12-17T18:55:35.193Z,24.10
2022-12-17T18:58:23.972Z,24.08
2022-12-17T19:00:54.221Z,15.97
2022-12-17T19:03:24.464Z,22.60
2022-12-17T19:05:54.628Z,22.60
2022-12-17T19:08:25.044Z,24.25
2022-12-17T19:10:55.141Z,15.15
2022-12-17T19:13:25.174Z,17.30
2022-12-17T19:15:55.491Z,17.75
2022-12-17T19:18:26.090Z,10.03
2022-12-17T19:21:00.687Z,12.10
2022-12-17T19:23:33.634Z,9.98
2022-12-17T19:26:12.516Z,8.55
2022-12-17T19:28:47.902Z,11.07
2022-12-17T19:31:19.488Z,8.80
2022-12-17T19:33:50.352Z,10.82
2022-12-17T19:36:39.151Z,11.70
2022-12-17T19:39:15.185Z,8.87
2022-12-17T19:41:45.526Z,9.20
2022-12-17T19:44:18.333Z,12.30
2022-12-17T19:46:48.483Z,10.25
2022-12-17T19:49:19.506Z,10.63
2022-12-17T19:51:49.653Z,9.55
2022-12-17T19:54:19.717Z,8.52
2022-12-17T19:56:49.820Z,7.85
2022-12-17T19:59:19.883Z,8.55
2022-12-17T20:01:51.332Z,10.07
2022-12-17T20:04:21.974Z,10.57
2022-12-17T20:06:52.057Z,11.95
2022-12-17T20:09:22.066Z,9.68
2022-12-17T20:11:52.063Z,11.88
2022-12-17T20:14:28.602Z,10.93
2022-12-17T20:17:02.115Z,10.80
2022-12-17T20:19:34.469Z,11.95
2022-12-17T20:22:07.346Z,10.55
2022-12-17T20:24:39.369Z,10.57
2022-12-17T20:27:10.200Z,11.20
2022-12-17T20:29:40.450Z,8.03
2022-12-17T20:32:10.721Z,9.70
2022-12-17T20:34:40.875Z,11.02
2022-12-17T20:37:10.840Z,7.97
2022-12-17T20:39:41.026Z,8.48
2022-12-17T20:42:11.477Z,9.05
2022-12-17T20:44:41.859Z,8.52
2022-12-17T20:47:12.242Z,11.65
2022-12-17T20:49:42.373Z,10.93
2022-12-17T20:52:12.348Z,10.43
2022-12-17T20:54:42.309Z,9.25
2022-12-17T20:57:12.312Z,9.07
2022-12-17T20:59:42.319Z,10.48
2022-12-17T21:02:13.087Z,10.45
2022-12-17T21:04:43.287Z,8.38
2022-12-17T21:07:13.237Z,9.63
2022-12-17T21:09:43.336Z,12.10
2022-12-17T21:12:15.650Z,12.55
2022-12-17T21:14:45.830Z,11.00
2022-12-17T21:17:18.297Z,9.45
2022-12-17T21:19:48.747Z,17.67
2022-12-17T21:22:18.925Z,10.88
2022-12-17T21:24:48.898Z,10.77
2022-12-17T21:27:19.425Z,10.40
2022-12-17T21:29:49.681Z,8.90
2022-12-17T21:32:19.651Z,9.63
2022-12-17T21:34:49.767Z,10.73
2022-12-17T21:37:19.799Z,10.43
2022-12-17T21:39:50.684Z,12.65
2022-12-17T21:42:41.148Z,12.73
2022-12-17T21:45:12.207Z,11.70
2022-12-17T21:47:42.542Z,14.02
2022-12-17T21:50:12.704Z,10.68
2022-12-17T21:52:42.663Z,11.05
2022-12-17T21:55:12.772Z,14.55
2022-12-17T21:57:42.727Z,12.68
2022-12-17T22:00:13.393Z,13.00
2022-12-17T22:02:43.941Z,14.13
2022-12-17T22:05:17.773Z,12.00
2022-12-17T22:07:50.580Z,11.32
2022-12-17T22:10:43.639Z,12.48
2022-12-17T22:13:33.979Z,15.45
2022-12-17T22:16:09.286Z,12.68
2022-12-17T22:18:44.796Z,22.60
2022-12-17T22:21:15.216Z,21.55
2022-12-17T22:23:47.526Z,19.10
2022-12-17T22:26:20.409Z,27.02
2022-12-17T22:28:53.356Z,18.77
2022-12-17T22:31:43.291Z,21.50
2022-12-17T22:34:52.506Z,19.65
2022-12-17T22:39:52.874Z,24.65
2022-12-17T22:44:00.303Z,22.80
2022-12-17T22:44:37.552Z,20.25
2022-12-17T22:45:54.773Z,27.23
2022-12-17T22:48:26.631Z,23.30
2022-12-17T22:51:04.322Z,21.98
2022-12-17T22:53:43.565Z,18.73
2022-12-17T22:56:20.824Z,11.68
2022-12-17T22:59:04.120Z,21.33
2022-12-17T23:01:35.166Z,26.73
2022-12-17T23:04:06.087Z,24.10
2022-12-17T23:06:36.275Z,27.55
2022-12-17T23:09:06.277Z,22.15
2022-12-17T23:11:36.317Z,23.60
2022-12-17T23:14:08.816Z,25.77
2022-12-17T23:16:41.530Z,26.42
2022-12-17T23:19:13.228Z,21.05
2022-12-17T23:21:43.451Z,19.47
2022-12-17T23:24:13.644Z,22.30
2022-12-17T23:26:43.823Z,18.58
2022-12-17T23:29:19.761Z,23.95
2022-12-17T23:31:50.175Z,18.88
2022-12-17T23:34:20.330Z,23.33
2022-12-17T23:36:50.674Z,21.02
2022-12-17T23:39:21.006Z,29.95
2022-12-17T23:41:51.169Z,23.90
2022-12-17T23:44:21.176Z,22.25
2022-12-17T23:46:52.210Z,26.90
2022-12-17T23:49:22.353Z,28.42
2022-12-17T23:51:52.556Z,19.52
2022-12-17T23:54:44.174Z,21.80
2022-12-17T23:57:14.355Z,18.27
2022-12-17T23:59:44.557Z,19.63
